Time;durP1;ratioP1;P1;durP2;ratioP2;P2;SDS_P1;SDS_P2;PMS_P1;PMS_P2;Temp;Humidity;BMP_temperature;BMP_pressure;BME280_temperature;BME280_humidity;BME280_pressure;Samples;Min_cycle;Max_cycle;Signal;HPM_P1;HPM_P2
2023/01/21 00:00:58;;;;;;;30.95;15.60;;;;;;;-0.24;87.83;101898.19;5076564;28;20127;-51
2023/01/21 00:03:24;;;;;;;34.75;15.88;;;;;;;-0.25;87.75;101914.72;5076454;28;20079;-52
2023/01/21 00:05:51;;;;;;;37.38;15.48;;;;;;;-0.22;87.75;101909.41;5076281;28;20052;-52
2023/01/21 00:08:18;;;;;;;30.73;15.88;;;;;;;-0.21;87.80;101911.09;5075446;28;20052;-51
2023/01/21 00:10:45;;;;;;;37.80;16.25;;;;;;;-0.24;88.23;101918.19;5076115;28;20127;-51
2023/01/21 00:13:13;;;;;;;31.40;15.27;;;;;;;-0.29;88.43;101922.72;5076484;28;20173;-51
2023/01/21 00:15:40;;;;;;;40.90;17.02;;;;;;;-0.20;88.29;101927.59;5076254;28;20051;-51
2023/01/21 00:18:07;;;;;;;34.55;17.05;;;;;;;-0.31;87.98;101928.00;5074610;28;20502;-52
2023/01/21 00:20:33;;;;;;;34.67;17.15;;;;;;;-0.27;87.83;101920.91;5076060;28;20094;-51
2023/01/21 00:23:01;;;;;;;35.97;17.38;;;;;;;-0.26;88.18;101930.44;5076168;28;20048;-49
2023/01/21 00:25:27;;;;;;;35.00;17.25;;;;;;;-0.36;88.27;101937.75;5075847;28;20469;-51
2023/01/21 00:27:55;;;;;;;34.13;16.90;;;;;;;-0.35;88.41;101938.59;5076008;28;20424;-50
2023/01/21 00:30:22;;;;;;;35.28;17.55;;;;;;;-0.47;88.98;101948.53;5077140;28;20515;-49
2023/01/21 00:32:49;;;;;;;37.63;17.83;;;;;;;-0.39;88.89;101950.88;5075781;28;20132;-50
2023/01/21 00:35:16;;;;;;;39.47;17.80;;;;;;;-0.43;89.13;101946.69;5075922;28;20102;-50
2023/01/21 00:37:42;;;;;;;36.17;17.15;;;;;;;-0.52;89.33;101947.84;5075706;28;20127;-49
2023/01/21 00:40:09;;;;;;;37.13;17.65;;;;;;;-0.48;89.77;101951.19;5075692;28;20041;-49
2023/01/21 00:42:36;;;;;;;37.80;17.80;;;;;;;-0.52;89.35;101953.06;5075810;28;20053;-50
2023/01/21 00:45:03;;;;;;;36.80;17.83;;;;;;;-0.67;89.97;101951.84;5075805;28;20049;-51
2023/01/21 00:47:30;;;;;;;37.17;18.27;;;;;;;-0.73;90.70;101956.38;5076006;28;20044;-51
2023/01/21 00:49:56;;;;;;;39.85;18.92;;;;;;;-0.63;90.54;101968.22;5075005;28;20044;-49
2023/01/21 00:52:23;;;;;;;42.45;18.80;;;;;;;-0.57;90.19;101973.22;5074577;28;20048;-49
2023/01/21 00:54:50;;;;;;;34.00;18.08;;;;;;;-0.52;90.18;101981.75;5075211;28;20053;-50
2023/01/21 00:57:16;;;;;;;35.50;18.42;;;;;;;-0.51;89.94;101980.84;5075737;28;20047;-50
2023/01/21 00:59:43;;;;;;;36.67;18.02;;;;;;;-0.54;89.83;101974.88;5075416;28;20127;-50
2023/01/21 01:02:10;;;;;;;35.67;18.10;;;;;;;-0.61;89.67;101990.72;5075550;28;20044;-49
2023/01/21 01:04:37;;;;;;;37.75;18.90;;;;;;;-0.63;90.10;101991.69;5075460;28;20048;-49
2023/01/21 01:07:04;;;;;;;39.20;19.00;;;;;;;-0.70;90.67;101996.22;5074695;28;20509;-49
2023/01/21 01:09:31;;;;;;;38.08;17.45;;;;;;;-0.71;90.54;101997.16;5075070;28;20080;-50
2023/01/21 01:11:57;;;;;;;40.40;18.83;;;;;;;-0.62;90.60;102003.78;5075382;28;20505;-52
2023/01/21 01:14:24;;;;;;;38.78;18.95;;;;;;;-0.60;90.14;102015.00;5075230;28;20102;-52
2023/01/21 01:16:51;;;;;;;43.42;18.48;;;;;;;-0.53;90.40;102019.13;5075021;28;20485;-52
2023/01/21 01:19:17;;;;;;;36.55;18.30;;;;;;;-0.61;90.66;102027.22;5074859;28;20086;-51
2023/01/21 01:21:44;;;;;;;43.17;19.45;;;;;;;-0.62;90.64;102030.72;5075222;28;20048;-51
2023/01/21 01:24:11;;;;;;;37.97;18.95;;;;;;;-0.84;91.14;102027.09;5074536;28;20428;-49
2023/01/21 01:26:39;;;;;;;38.92;18.73;;;;;;;-0.72;91.29;102037.13;5075341;28;20054;-52
2023/01/21 01:29:11;;;;;;;40.33;19.38;;;;;;;-0.68;91.26;102041.34;5075035;28;20401;-50
2023/01/21 01:31:39;;;;;;;35.83;18.48;;;;;;;-0.63;90.68;102042.03;5074933;28;20078;-52
2023/01/21 01:34:06;;;;;;;39.85;19.58;;;;;;;-0.69;90.83;102046.59;5074378;28;20109;-52
2023/01/21 01:36:33;;;;;;;44.25;19.45;;;;;;;-0.64;91.10;102058.59;5073498;28;20101;-51
2023/01/21 01:39:00;;;;;;;41.22;18.92;;;;;;;-0.77;91.20;102060.72;5075092;28;20082;-50
2023/01/21 01:41:28;;;;;;;40.58;19.95;;;;;;;-0.78;91.15;102050.38;5074336;28;20510;-51
2023/01/21 01:44:01;;;;;;;41.28;20.10;;;;;;;-0.87;91.81;102056.72;5074834;28;20055;-51
2023/01/21 01:46:31;;;;;;;38.80;18.65;;;;;;;-0.80;91.75;102067.78;5073317;28;20506;-52
2023/01/21 01:49:17;;;;;;;40.55;19.88;;;;;;;-0.83;91.79;102065.28;5073476;28;20048;-51
2023/01/21 01:51:55;;;;;;;42.75;19.90;;;;;;;-0.82;91.73;102064.38;5074380;28;20500;-50
2023/01/21 01:54:27;;;;;;;40.90;20.40;;;;;;;-0.75;91.82;102078.06;5074340;28;20078;-50
2023/01/21 01:56:58;;;;;;;42.30;19.02;;;;;;;-0.83;91.44;102068.75;5074301;28;20513;-51
2023/01/21 01:59:28;;;;;;;39.30;19.77;;;;;;;-0.92;91.90;102074.25;5074561;28;20041;-50
2023/01/21 02:01:57;;;;;;;39.97;19.10;;;;;;;-0.91;91.80;102075.97;5073273;28;20094;-50
2023/01/21 02:04:27;;;;;;;40.58;19.00;;;;;;;-0.86;91.73;102092.28;5074258;28;20117;-51
2023/01/21 02:06:56;;;;;;;39.70;19.73;;;;;;;-0.79;91.69;102085.13;5073754;28;20040;-50
2023/01/21 02:09:28;;;;;;;40.65;18.50;;;;;;;-0.78;91.26;102086.84;5073256;28;20446;-51
2023/01/21 02:11:57;;;;;;;38.80;19.13;;;;;;;-0.74;91.08;102087.63;5074499;28;20044;-50
2023/01/21 02:14:24;;;;;;;40.38;18.52;;;;;;;-0.78;91.00;102081.63;5073899;28;20498;-49
2023/01/21 02:17:04;;;;;;;36.45;18.95;;;;;;;-0.85;91.29;102091.41;5073821;28;20048;-51
2023/01/21 02:20:11;;;;;;;41.58;19.17;;;;;;;-0.94;91.58;102088.22;5073845;28;20055;-50
2023/01/21 02:23:17;;;;;;;38.03;18.08;;;;;;;-0.90;91.17;102092.44;5073668;28;20040;-51
2023/01/21 02:26:20;;;;;;;43.60;19.23;;;;;;;-0.85;91.48;102098.38;5073314;28;20048;-51
2023/01/21 02:29:14;;;;;;;39.25;18.67;;;;;;;-0.85;90.81;102099.22;5073991;28;20036;-51
2023/01/21 02:32:17;;;;;;;38.55;17.98;;;;;;;-0.98;90.59;102103.94;5067410;28;20044;-52
2023/01/21 02:34:54;;;;;;;37.38;18.13;;;;;;;-0.97;89.84;102110.84;5073845;28;20041;-54
2023/01/21 02:37:48;;;;;;;36.75;17.95;;;;;;;-0.80;90.12;102112.97;5073674;28;20044;-49
2023/01/21 02:40:28;;;;;;;43.20;18.40;;;;;;;-0.74;90.23;102117.13;5073406;28;20045;-49
2023/01/21 02:43:12;;;;;;;36.20;17.35;;;;;;;-0.78;89.52;102116.38;5073664;28;20181;-49
2023/01/21 02:45:54;;;;;;;35.78;17.90;;;;;;;-0.75;89.56;102125.81;5073465;28;20048;-49
2023/01/21 02:48:33;;;;;;;39.70;17.40;;;;;;;-0.82;89.28;102119.97;5073620;28;20079;-50
2023/01/21 02:51:01;;;;;;;35.55;17.73;;;;;;;-0.75;88.77;102122.38;5073612;28;20052;-51
2023/01/21 02:53:30;;;;;;;38.35;18.08;;;;;;;-0.90;88.80;102121.09;5073382;28;20091;-49
2023/01/21 02:56:04;;;;;;;37.83;17.98;;;;;;;-0.98;89.39;102124.78;5073066;28;20044;-49
2023/01/21 02:58:36;;;;;;;33.78;17.40;;;;;;;-0.89;89.19;102130.59;5073711;28;20049;-49
2023/01/21 03:01:28;;;;;;;41.78;18.48;;;;;;;-0.78;89.06;102137.22;5071909;28;20044;-51
2023/01/21 03:04:18;;;;;;;37.53;16.70;;;;;;;-0.76;88.46;102131.97;5073476;28;20044;-50
2023/01/21 03:07:15;;;;;;;34.70;17.23;;;;;;;-0.78;88.62;102139.81;5072761;28;20041;-51
2023/01/21 03:09:42;;;;;;;34.08;16.23;;;;;;;-0.82;88.76;102140.81;5071623;28;20324;-48
2023/01/21 03:12:22;;;;;;;37.05;17.25;;;;;;;-0.79;88.70;102145.91;5073248;28;20044;-50
2023/01/21 03:17:56;;;;;;;38.58;17.77;;;;;;;-0.80;88.14;102153.78;5072800;28;20102;-50
2023/01/21 03:20:31;;;;;;;39.25;17.27;;;;;;;-0.86;88.04;102162.63;5073250;28;20397;-51
2023/01/21 03:23:04;;;;;;;37.65;17.00;;;;;;;-0.87;88.06;102158.34;5072033;28;20555;-51
2023/01/21 03:25:33;;;;;;;37.55;17.92;;;;;;;-0.92;89.00;102162.81;5073218;28;20044;-49
2023/01/21 03:28:05;;;;;;;42.22;18.27;;;;;;;-0.99;88.67;102166.50;5073294;28;20052;-51
2023/01/21 03:30:33;;;;;;;;;;;;;;;-0.95;88.87;102175.09;5073290;28;20432;-51
2023/01/21 03:33:02;;;;;;;36.13;17.45;;;;;;;-0.84;88.96;102168.66;5068511;28;19959;-50
2023/01/21 03:35:34;;;;;;;37.42;18.23;;;;;;;-0.93;88.90;102171.53;5035066;28;20111;-50
2023/01/21 03:38:20;;;;;;;39.28;18.80;;;;;;;-0.88;88.55;102167.03;5070109;28;20079;-51
2023/01/21 03:40:56;;;;;;;39.72;18.70;;;;;;;-0.79;88.31;102171.97;5072771;28;20045;-51
2023/01/21 03:43:23;;;;;;;40.53;18.85;;;;;;;-0.76;88.20;102178.88;5072837;28;20044;-50
2023/01/21 03:46:17;;;;;;;43.78;18.75;;;;;;;-0.90;88.22;102183.63;5072635;28;20078;-50
2023/01/21 03:48:50;;;;;;;39.95;19.08;;;;;;;-1.04;89.36;102184.00;5072774;28;20132;-51
2023/01/21 03:51:23;;;;;;;41.33;20.20;;;;;;;-1.05;89.72;102187.53;5073009;28;20040;-50
2023/01/21 03:53:54;;;;;;;42.80;20.08;;;;;;;-1.20;90.27;102180.97;5072869;28;20060;-49
2023/01/21 03:56:22;;;;;;;45.20;21.13;;;;;;;-1.30;90.55;102184.75;5072865;28;20052;-51
2023/01/21 03:58:49;;;;;;;51.33;21.15;;;;;;;-1.22;90.84;102196.69;5072573;28;20072;-49
2023/01/21 04:01:16;;;;;;;42.05;20.55;;;;;;;-1.20;90.63;102183.59;5073050;28;20045;-51
2023/01/21 04:03:42;;;;;;;47.83;21.30;;;;;;;-1.04;90.36;102190.06;5072389;28;20044;-50
2023/01/21 04:06:14;;;;;;;45.30;20.25;;;;;;;-1.17;90.14;102189.56;5072814;28;20075;-48
2023/01/21 04:08:41;;;;;;;43.45;21.38;;;;;;;-1.18;90.94;102203.50;5071932;28;20053;-49
2023/01/21 04:11:08;;;;;;;44.97;21.17;;;;;;;-1.27;91.14;102198.53;5072822;28;20522;-51
2023/01/21 04:13:35;;;;;;;48.72;20.67;;;;;;;-1.25;90.96;102207.16;5072320;28;20052;-48
2023/01/21 04:16:02;;;;;;;45.88;20.65;;;;;;;-1.22;91.09;102207.09;5072794;28;20098;-51
2023/01/21 04:18:29;;;;;;;48.22;20.20;;;;;;;-1.23;91.45;102201.91;5072348;28;20111;-48
2023/01/21 04:20:55;;;;;;;49.28;21.25;;;;;;;-1.06;90.97;102207.50;5072446;28;20462;-51
2023/01/21 04:23:22;;;;;;;45.35;20.52;;;;;;;-1.12;90.58;102206.84;5072733;28;20044;-49
2023/01/21 04:25:50;;;;;;;45.40;19.52;;;;;;;-1.24;90.97;102208.84;5074007;28;20147;-53
2023/01/21 04:28:18;;;;;;;45.03;20.52;;;;;;;-1.20;91.19;102212.22;5075015;28;20052;-49
2023/01/21 04:30:46;;;;;;;43.25;20.20;;;;;;;-1.17;90.98;102213.00;5075887;28;20094;-49
2023/01/21 04:33:14;;;;;;;43.83;19.80;;;;;;;-1.10;90.47;102210.25;5073885;28;20119;-51
2023/01/21 04:35:41;;;;;;;47.78;20.50;;;;;;;-1.28;90.32;102207.25;5075495;28;20118;-50
2023/01/21 04:38:08;;;;;;;47.30;19.83;;;;;;;-1.39;91.14;102211.88;5075275;28;20535;-50
2023/01/21 04:40:36;;;;;;;40.72;19.92;;;;;;;-1.45;91.56;102219.88;5075690;28;20048;-50
2023/01/21 04:43:02;;;;;;;43.03;20.45;;;;;;;-1.35;91.41;102216.13;5075750;28;20490;-50
2023/01/21 04:45:29;;;;;;;43.47;19.95;;;;;;;-1.24;90.76;102223.63;5074481;28;20424;-50
2023/01/21 04:47:56;;;;;;;47.22;20.73;;;;;;;-1.22;90.59;102222.72;5036676;28;20670;-50
2023/01/21 04:50:22;;;;;;;45.90;20.15;;;;;;;-1.37;90.79;102226.56;5055725;28;20104;-52
2023/01/21 04:52:49;;;;;;;43.58;20.20;;;;;;;-1.39;91.17;102230.13;5055798;28;20095;-51
2023/01/21 04:55:16;;;;;;;47.13;20.55;;;;;;;-1.29;91.13;102238.53;5055173;28;20045;-51
2023/01/21 04:57:43;;;;;;;43.47;19.80;;;;;;;-1.39;90.89;102230.13;5055491;28;20045;-51
2023/01/21 05:00:10;;;;;;;44.92;19.23;;;;;;;-1.45;91.07;102235.50;5055364;28;20068;-50
2023/01/21 05:02:36;;;;;;;45.10;19.95;;;;;;;-1.45;91.03;102240.69;5055620;28;20391;-51
2023/01/21 05:05:03;;;;;;;46.80;20.17;;;;;;;-1.48;91.49;102232.97;5055401;28;20049;-52
2023/01/21 05:07:30;;;;;;;47.85;20.27;;;;;;;-1.57;91.41;102240.09;5067539;28;20063;-50
2023/01/21 05:09:57;;;;;;;45.15;20.52;;;;;;;-1.47;91.28;102237.28;5075071;28;20072;-52
2023/01/21 05:12:23;;;;;;;44.90;19.55;;;;;;;-1.43;91.10;102249.31;5075184;28;20474;-51
2023/01/21 05:14:56;;;;;;;47.03;21.90;;;;;;;-1.31;90.50;102246.41;5075344;28;20128;-50
2023/01/21 05:17:23;;;;;;;42.95;19.90;;;;;;;-1.34;90.75;102251.69;5074743;28;20261;-50
2023/01/21 05:19:49;;;;;;;48.67;20.67;;;;;;;-1.32;90.34;102247.28;5075464;28;20044;-50
2023/01/21 05:22:16;;;;;;;41.40;19.48;;;;;;;-1.24;89.78;102254.88;5074886;28;20048;-51
2023/01/21 05:24:43;;;;;;;45.90;20.33;;;;;;;-1.25;89.70;102258.41;5075276;28;20181;-50
2023/01/21 05:27:10;;;;;;;46.05;20.55;;;;;;;-1.26;89.65;102260.13;5074842;28;20127;-50
2023/01/21 05:29:37;;;;;;;39.20;19.40;;;;;;;-1.24;89.77;102267.91;5074006;28;20049;-50
2023/01/21 05:32:04;;;;;;;44.35;19.55;;;;;;;-1.34;90.01;102269.91;5074970;28;20086;-51
2023/01/21 05:34:31;;;;;;;43.55;20.05;;;;;;;-1.29;90.33;102280.19;5074837;28;20060;-50
2023/01/21 05:36:57;;;;;;;44.97;19.88;;;;;;;-1.21;90.15;102283.47;5074750;28;20193;-49
2023/01/21 05:39:24;;;;;;;42.90;20.23;;;;;;;-1.31;89.85;102282.84;5074643;28;20407;-51
2023/01/21 05:41:51;;;;;;;46.50;19.80;;;;;;;-1.19;89.79;102290.31;5074699;28;20067;-51
2023/01/21 05:44:17;;;;;;;44.40;18.92;;;;;;;-1.23;89.53;102293.91;5074966;28;20055;-49
2023/01/21 05:46:44;;;;;;;38.55;18.67;;;;;;;-1.21;89.46;102294.72;5074345;28;20135;-50
2023/01/21 05:49:11;;;;;;;46.28;20.10;;;;;;;-1.24;89.53;102304.38;5074669;28;20056;-50
2023/01/21 05:51:37;;;;;;;41.03;19.13;;;;;;;-1.21;89.28;102307.75;5074607;28;20037;-49
2023/01/21 05:54:04;;;;;;;42.63;19.23;;;;;;;-1.28;89.34;102303.59;5072822;28;20064;-51
2023/01/21 05:56:31;;;;;;;39.95;18.33;;;;;;;-1.17;88.90;102313.72;5074142;28;20044;-50
2023/01/21 05:58:57;;;;;;;39.83;18.30;;;;;;;-1.14;88.91;102315.41;5074465;28;20056;-51
2023/01/21 06:01:24;;;;;;;47.63;19.60;;;;;;;-1.10;89.00;102314.44;5074885;28;20041;-51
2023/01/21 06:03:51;;;;;;;43.47;19.25;;;;;;;-1.12;89.56;102314.47;5074105;28;20072;-50
2023/01/21 06:06:17;;;;;;;43.60;20.10;;;;;;;-1.21;89.50;102320.75;5074331;28;20045;-49
2023/01/21 06:08:44;;;;;;;47.85;20.52;;;;;;;-1.26;89.04;102314.81;5073110;28;20456;-49
2023/01/21 06:11:11;;;;;;;46.45;20.20;;;;;;;-1.24;89.28;102326.03;5072923;28;20060;-49
2023/01/21 06:13:37;;;;;;;43.88;19.60;;;;;;;-1.17;89.41;102329.34;5072743;28;20131;-50
2023/01/21 06:16:04;;;;;;;49.83;21.85;;;;;;;-1.16;88.96;102331.94;5074221;28;20045;-50
2023/01/21 06:18:31;;;;;;;46.45;22.02;;;;;;;-1.34;89.41;102336.75;5072678;28;20428;-49
2023/01/21 06:20:59;;;;;;;48.15;21.80;;;;;;;-1.34;89.21;102348.03;5072832;28;20044;-50
2023/01/21 06:23:26;;;;;;;46.08;20.58;;;;;;;-1.24;89.44;102348.63;5073712;28;20111;-49
2023/01/21 06:25:53;;;;;;;42.70;19.95;;;;;;;-1.27;89.02;102352.19;5073258;28;20422;-49
2023/01/21 06:28:19;;;;;;;45.95;21.55;;;;;;;-1.35;89.60;102348.91;5073960;28;20098;-50
2023/01/21 06:30:47;;;;;;;43.95;19.55;;;;;;;-1.55;90.13;102359.78;5073659;28;20044;-51
2023/01/21 06:33:13;;;;;;;50.65;21.92;;;;;;;-1.42;90.45;102362.97;5073710;28;20075;-50
2023/01/21 06:35:41;;;;;;;51.78;22.75;;;;;;;-1.43;90.15;102364.72;5073750;28;20044;-49
2023/01/21 06:38:07;;;;;;;49.03;22.42;;;;;;;-1.35;90.00;102359.31;5073384;28;20044;-49
2023/01/21 06:40:34;;;;;;;54.80;22.48;;;;;;;-1.41;89.89;102370.72;5073439;28;20063;-51
2023/01/21 06:43:00;;;;;;;44.08;21.42;;;;;;;-1.46;90.25;102380.41;5073639;28;20044;-52
2023/01/21 06:45:27;;;;;;;54.08;22.17;;;;;;;-1.50;90.49;102378.75;5073544;28;20052;-50
2023/01/21 06:47:54;;;;;;;47.70;22.50;;;;;;;-1.51;90.77;102382.28;5064945;28;20044;-48
2023/01/21 06:50:20;;;;;;;51.35;23.40;;;;;;;-1.53;90.85;102384.03;5053344;28;20044;-49
2023/01/21 06:52:48;;;;;;;53.17;22.60;;;;;;;-1.47;90.38;102389.13;5053375;28;20398;-51
2023/01/21 06:55:15;;;;;;;53.42;23.30;;;;;;;-1.46;90.62;102387.34;5053056;28;20052;-50
2023/01/21 06:57:43;;;;;;;48.83;22.25;;;;;;;-1.44;90.33;102391.63;5053617;28;20045;-49
2023/01/21 07:00:11;;;;;;;51.30;22.73;;;;;;;-1.63;91.06;102395.56;5053401;28;20449;-51
2023/01/21 07:02:38;;;;;;;52.70;22.48;;;;;;;-1.68;91.14;102395.66;5053430;28;20079;-51
2023/01/21 07:05:05;;;;;;;48.85;22.42;;;;;;;-1.62;90.96;102403.34;5053386;28;20128;-49
2023/01/21 07:07:32;;;;;;;47.00;21.67;;;;;;;-1.58;90.44;102397.16;5062444;28;20072;-50
2023/01/21 07:09:59;;;;;;;49.97;22.75;;;;;;;-1.67;91.17;102407.78;5073295;28;20048;-49
2023/01/21 07:12:25;;;;;;;51.17;21.60;;;;;;;-1.51;90.71;102417.84;5072832;28;20094;-50
2023/01/21 07:14:52;;;;;;;48.92;21.73;;;;;;;-1.57;90.92;102414.47;5073445;28;20044;-49
2023/01/21 07:17:19;;;;;;;50.15;22.70;;;;;;;-1.58;90.62;102411.94;5072517;28;20053;-51
2023/01/21 07:19:45;;;;;;;55.63;22.30;;;;;;;-1.63;91.17;102414.63;5073536;28;20049;-50
2023/01/21 07:22:12;;;;;;;52.38;20.15;;;;;;;-1.72;91.49;102421.81;5072568;28;20050;-50
2023/01/21 07:24:38;;;;;;;49.97;21.90;;;;;;;-1.75;91.24;102407.97;5073432;28;20477;-50
2023/01/21 07:27:05;;;;;;;50.55;22.52;;;;;;;-1.48;90.83;102430.78;5072988;28;20053;-50
2023/01/21 07:29:32;;;;;;;56.00;22.55;;;;;;;-1.50;90.85;102427.38;5073149;28;20048;-51
2023/01/21 07:31:59;;;;;;;52.72;22.98;;;;;;;-1.36;90.58;102435.72;5073274;28;20488;-49
2023/01/21 07:34:25;;;;;;;49.60;21.10;;;;;;;-1.41;90.58;102435.81;5072940;28;20083;-50
2023/01/21 07:36:53;;;;;;;48.50;21.77;;;;;;;-1.44;90.63;102443.69;5073096;28;20128;-49
2023/01/21 07:39:19;;;;;;;50.47;22.25;;;;;;;-1.40;90.46;102447.97;5072629;28;20059;-49
2023/01/21 07:41:46;;;;;;;50.40;22.67;;;;;;;-1.57;90.72;102450.06;5072740;28;20044;-49
2023/01/21 07:44:12;;;;;;;53.70;22.90;;;;;;;-1.63;91.66;102456.28;5072888;28;20048;-49
2023/01/21 07:46:39;;;;;;;55.00;23.17;;;;;;;-1.66;91.28;102453.72;5071551;28;20486;-50
2023/01/21 07:49:06;;;;;;;56.15;23.30;;;;;;;-1.59;91.48;102454.47;5073021;28;20072;-48
2023/01/21 07:51:34;;;;;;;56.88;24.67;;;;;;;-1.57;91.82;102460.50;5072438;28;20061;-49
2023/01/21 07:54:00;;;;;;;56.63;24.55;;;;;;;-1.51;91.80;102472.50;5072649;28;20376;-49
2023/01/21 07:56:27;;;;;;;57.85;24.95;;;;;;;-1.66;91.52;102463.28;5072407;28;20052;-49
2023/01/21 07:58:54;;;;;;;55.95;24.35;;;;;;;-1.68;91.74;102478.09;5072808;28;20052;-50
2023/01/21 08:01:21;;;;;;;65.93;25.25;;;;;;;-1.55;91.51;102476.91;5075458;28;20051;-49
2023/01/21 08:03:50;;;;;;;61.70;25.40;;;;;;;-1.56;91.88;102486.50;5076293;28;20040;-50
2023/01/21 08:06:17;;;;;;;61.63;24.63;;;;;;;-1.65;92.41;102489.28;5075236;28;20569;-49
2023/01/21 08:08:44;;;;;;;59.20;25.13;;;;;;;-1.65;92.37;102486.69;5075850;28;20053;-50
2023/01/21 08:11:11;;;;;;;61.35;26.60;;;;;;;-1.62;92.28;102491.84;5076375;28;20138;-49
2023/01/21 08:13:38;;;;;;;64.10;26.13;;;;;;;-1.60;92.22;102492.66;5075949;28;20544;-49
2023/01/21 08:16:05;;;;;;;61.15;25.33;;;;;;;-1.66;92.54;102497.97;5076252;28;20056;-49
2023/01/21 08:18:32;;;;;;;59.40;24.70;;;;;;;-1.72;92.87;102490.31;5075904;28;20076;-50
2023/01/21 08:20:59;;;;;;;62.80;27.10;;;;;;;-1.55;92.71;102489.94;5075827;28;20055;-49
2023/01/21 08:23:26;;;;;;;58.15;26.05;;;;;;;-1.38;91.82;102493.03;5076233;28;20074;-50
2023/01/21 08:25:53;;;;;;;59.35;25.60;;;;;;;-1.29;91.41;102484.16;5075689;28;20105;-49
2023/01/21 08:28:21;;;;;;;70.25;27.10;;;;;;;-1.40;91.32;102493.94;5076359;28;20051;-49
2023/01/21 08:30:48;;;;;;;63.50;27.17;;;;;;;-1.23;91.49;102497.03;5076041;28;20044;-50
2023/01/21 08:33:15;;;;;;;61.95;26.55;;;;;;;-1.18;90.97;102497.81;5076095;28;20446;-51
2023/01/21 08:35:41;;;;;;;70.28;27.02;;;;;;;-1.19;91.17;102503.03;5075927;28;20049;-50
2023/01/21 08:38:08;;;;;;;69.22;27.17;;;;;;;-1.07;90.88;102505.38;5074848;28;20076;-50
2023/01/21 08:40:35;;;;;;;61.13;24.98;;;;;;;-0.97;90.57;102504.25;5075971;28;20045;-49
2023/01/21 08:43:04;;;;;;;62.00;26.73;;;;;;;-0.85;90.21;102497.88;5076018;28;20494;-49
2023/01/21 08:45:32;;;;;;;58.67;25.17;;;;;;;-0.80;89.50;102503.84;5075664;28;20045;-49
2023/01/21 08:48:01;;;;;;;61.92;26.45;;;;;;;-1.01;89.49;102504.38;5072251;28;20064;-50
2023/01/21 08:50:28;;;;;;;66.68;26.65;;;;;;;-0.88;89.57;102518.81;5079332;28;20052;-48
2023/01/21 08:52:54;;;;;;;59.08;25.55;;;;;;;-0.92;89.60;102522.38;5095451;28;20078;-48
2023/01/21 08:55:25;;;;;;;63.10;27.10;;;;;;;-0.82;88.98;102536.03;5095754;28;20048;-48
2023/01/21 08:57:54;;;;;;;57.72;26.17;;;;;;;-0.82;89.14;102536.91;5095257;28;20051;-48
2023/01/21 09:00:22;;;;;;;59.67;26.00;;;;;;;-0.88;88.81;102542.25;5095539;28;20044;-49
2023/01/21 09:02:50;;;;;;;62.30;26.02;;;;;;;-1.03;90.30;102540.88;5095468;28;20098;-48
2023/01/21 09:05:17;;;;;;;59.38;25.75;;;;;;;-1.03;90.01;102543.47;5095651;28;20052;-48
2023/01/21 09:07:45;;;;;;;60.00;26.90;;;;;;;-1.00;90.38;102545.13;5079765;28;20052;-50
2023/01/21 09:10:59;;;;;;;56.70;25.63;;;;;;;-0.89;90.23;102548.38;5075152;28;20541;-48
2023/01/21 09:13:04;;;;;;;55.55;25.73;;;;;;;-0.93;89.58;102557.13;5075006;28;20045;-49
2023/01/21 09:15:37;;;;;;;55.58;25.25;;;;;;;-0.86;89.29;102557.84;5075006;28;20478;-49
2023/01/21 09:18:05;;;;;;;57.42;24.48;;;;;;;-0.90;89.65;102564.88;5073356;28;20410;-49
2023/01/21 09:20:31;;;;;;;52.75;23.67;;;;;;;-1.03;90.39;102568.69;5075262;28;20102;-49
2023/01/21 09:22:58;;;;;;;56.25;25.45;;;;;;;-1.05;90.38;102575.66;5074879;28;20048;-49
2023/01/21 09:25:25;;;;;;;57.20;26.30;;;;;;;-1.01;90.69;102577.31;5074968;28;20076;-49
2023/01/21 09:27:51;;;;;;;55.58;24.80;;;;;;;-0.94;89.61;102571.06;5074874;28;20068;-49
2023/01/21 09:30:18;;;;;;;52.78;24.13;;;;;;;-0.90;89.92;102583.13;5075309;28;20102;-49
2023/01/21 09:32:45;;;;;;;52.63;24.08;;;;;;;-0.88;89.21;102581.34;5074710;28;20044;-49
2023/01/21 09:35:12;;;;;;;55.67;24.42;;;;;;;-0.99;89.82;102583.34;5070895;28;20045;-50
2023/01/21 09:37:39;;;;;;;58.80;24.77;;;;;;;-0.97;89.94;102595.44;5067291;28;20110;-50
2023/01/21 09:40:08;;;;;;;53.85;24.42;;;;;;;-0.90;90.41;102593.56;5074769;28;20459;-50
2023/01/21 09:42:34;;;;;;;56.58;25.05;;;;;;;-0.79;90.01;102591.56;5073551;28;20102;-52
2023/01/21 09:45:02;;;;;;;56.42;25.40;;;;;;;-0.79;90.30;102593.31;5074513;28;20068;-50
2023/01/21 09:47:37;;;;;;;61.55;24.58;;;;;;;-0.74;90.17;102598.44;5074274;28;20045;-51
2023/01/21 09:50:15;;;;;;;56.15;24.58;;;;;;;-0.64;89.94;102594.69;5074541;28;20102;-49
2023/01/21 09:52:47;;;;;;;62.65;25.73;;;;;;;-0.65;89.74;102606.88;5074810;28;20044;-51
2023/01/21 09:55:19;;;;;;;60.22;26.25;;;;;;;-0.69;89.86;102605.25;5074511;28;20094;-50
2023/01/21 09:58:26;;;;;;;51.10;22.92;;;;;;;-0.66;90.46;102620.78;5074285;28;20048;-51
2023/01/21 10:01:00;;;;;;;51.05;24.10;;;;;;;-0.59;90.10;102611.94;5074062;28;20105;-50
2023/01/21 10:06:47;;;;;;;57.40;24.67;;;;;;;-0.36;90.30;102609.66;5110943;27;20513;-50
2023/01/21 10:09:29;;;;;;;50.22;23.25;;;;;;;-0.41;89.31;102615.00;5111007;28;20518;-50
2023/01/21 10:15:36;;;;;;;58.25;23.63;;;;;;;-0.37;89.95;102613.19;5110543;27;20347;-52
2023/01/21 10:18:10;;;;;;;56.03;25.15;;;;;;;-0.42;90.23;102608.94;5111417;28;20048;-50
2023/01/21 10:21:03;;;;;;;56.45;23.90;;;;;;;-0.37;89.53;102616.66;5110902;28;20046;-51
2023/01/21 10:26:11;;;;;;;53.42;23.63;;;;;;;-0.36;89.99;102618.38;5090096;28;20352;-51
2023/01/21 10:28:41;;;;;;;54.90;23.67;;;;;;;-0.29;90.25;102613.84;5090949;28;20072;-49
2023/01/21 10:31:27;;;;;;;55.25;23.27;;;;;;;-0.26;89.80;102613.78;5090194;28;20048;-50
2023/01/21 10:33:55;;;;;;;57.22;23.17;;;;;;;-0.26;90.41;102616.38;5090869;28;20040;-51
2023/01/21 10:36:49;;;;;;;52.13;23.40;;;;;;;-0.22;89.67;102612.78;5090266;28;20131;-51
2023/01/21 10:39:42;;;;;;;51.83;21.55;;;;;;;-0.26;89.44;102612.00;5090462;28;20497;-49
2023/01/21 10:42:39;;;;;;;51.47;23.40;;;;;;;-0.17;90.08;102604.88;5090099;28;20051;-49
2023/01/21 10:45:22;;;;;;;51.38;22.73;;;;;;;-0.20;90.68;102601.44;5090238;28;20079;-51
2023/01/21 10:48:06;;;;;;;50.95;21.90;;;;;;;-0.14;90.14;102602.19;5090395;28;20413;-50
2023/01/21 10:50:45;;;;;;;52.72;22.33;;;;;;;-0.08;89.51;102602.88;5065370;28;20054;-51
2023/01/21 10:53:35;;;;;;;53.75;23.75;;;;;;;-0.11;89.99;102600.34;5089382;28;20044;-50
2023/01/21 10:59:06;;;;;;;56.63;25.63;;;;;;;0.15;89.68;102612.72;5110357;27;20380;-51
2023/01/21 11:01:40;;;;;;;57.22;24.77;;;;;;;0.15;88.89;102604.88;5111098;28;20556;-51
2023/01/21 11:04:14;;;;;;;56.83;25.42;;;;;;;0.17;89.64;102618.75;5110978;28;20489;-50
2023/01/21 11:06:44;;;;;;;56.45;24.80;;;;;;;0.22;89.39;102610.81;5110670;28;20051;-52
2023/01/21 11:09:13;;;;;;;64.78;25.30;;;;;;;0.19;88.53;102613.47;5110772;28;20063;-49
2023/01/21 11:11:41;;;;;;;62.08;25.88;;;;;;;0.26;89.19;102604.59;5110492;28;20085;-50
2023/01/21 11:14:09;;;;;;;58.40;25.40;;;;;;;0.35;88.92;102606.94;5110377;28;20040;-49
2023/01/21 11:16:43;;;;;;;60.65;24.73;;;;;;;0.36;88.98;102613.91;5110229;28;20040;-50
2023/01/21 11:19:15;;;;;;;60.35;26.58;;;;;;;0.25;89.01;102615.06;5110823;28;20059;-51
2023/01/21 11:22:03;;;;;;;64.47;26.05;;;;;;;0.23;89.22;102616.88;5110720;28;20044;-50
2023/01/21 11:24:41;;;;;;;56.03;23.90;;;;;;;0.12;89.25;102611.94;5109450;28;20063;-50
2023/01/21 11:27:18;;;;;;;57.67;25.48;;;;;;;0.25;88.67;102613.31;5110172;28;20040;-50
2023/01/21 11:29:47;;;;;;;59.22;25.13;;;;;;;0.22;89.37;102618.63;5110811;28;20048;-49
2023/01/21 11:32:19;;;;;;;61.67;26.55;;;;;;;0.30;88.68;102611.44;5110578;28;20044;-49
2023/01/21 11:34:48;;;;;;;58.80;24.95;;;;;;;0.25;89.24;102607.25;5110125;28;20448;-48
2023/01/21 11:37:31;;;;;;;60.38;25.38;;;;;;;0.30;89.20;102614.03;5110327;28;20044;-48
2023/01/21 11:40:13;;;;;;;59.28;23.83;;;;;;;0.28;88.70;102607.16;5110154;28;20071;-48